createdAt,value
2023-03-17T00:39:18.404Z,33.84
2023-03-17T00:49:18.340Z,33.92
2023-03-17T01:07:18.407Z,33.93
2023-03-17T01:08:18.413Z,33.95
2023-03-17T01:09:18.497Z,33.96
2023-03-17T01:10:18.460Z,33.98
2023-03-17T01:11:18.418Z,33.99
2023-03-17T01:12:18.438Z,33.96
2023-03-17T01:13:18.414Z,33.96
2023-03-17T01:14:18.406Z,33.97
2023-03-17T01:15:18.415Z,33.94
2023-03-17T01:16:18.487Z,34.00
2023-03-17T01:17:18.425Z,33.91
2023-03-17T01:18:18.466Z,33.99
2023-03-17T01:19:18.421Z,33.96
2023-03-17T01:20:18.428Z,33.96
2023-03-17T01:21:18.429Z,33.99
2023-03-17T01:22:18.424Z,33.99
2023-03-17T01:23:18.455Z,34.04
2023-03-17T01:24:18.454Z,33.98
2023-03-17T01:25:18.474Z,33.99
2023-03-17T01:26:18.474Z,34.01
2023-03-17T01:27:18.484Z,34.05
2023-03-17T01:28:18.522Z,34.04
2023-03-17T01:29:18.540Z,34.00
2023-03-17T01:30:18.472Z,34.00
2023-03-17T01:31:18.522Z,34.01
2023-03-17T01:32:18.489Z,34.01
2023-03-17T01:33:18.494Z,34.04
2023-03-17T01:34:18.511Z,34.06
2023-03-17T01:35:18.562Z,34.05
2023-03-17T01:36:18.504Z,34.01
2023-03-17T01:37:18.506Z,34.08
2023-03-17T01:38:18.513Z,34.01
2023-03-17T01:39:18.523Z,34.07
2023-03-17T01:40:18.547Z,34.05
2023-03-17T01:41:18.560Z,34.05
2023-03-17T01:42:18.561Z,34.11
2023-03-17T01:43:18.571Z,34.05
2023-03-17T01:44:18.599Z,34.04
2023-03-17T01:45:18.609Z,34.06
2023-03-17T01:46:18.595Z,34.09
2023-03-17T01:47:18.611Z,34.09
2023-03-17T01:48:18.623Z,34.05
2023-03-17T01:49:18.634Z,34.12
2023-03-17T01:50:18.648Z,34.09
2023-03-17T01:51:18.660Z,34.12
2023-03-17T01:52:18.665Z,34.06
2023-03-17T01:53:18.680Z,34.15
2023-03-17T01:54:18.681Z,34.21
2023-03-17T01:55:18.706Z,34.10
2023-03-17T01:56:18.713Z,34.11
2023-03-17T01:57:18.723Z,34.11
2023-03-17T01:58:18.735Z,34.10
2023-03-17T01:59:18.737Z,34.14
2023-03-17T02:00:18.748Z,34.15
2023-03-17T02:01:18.827Z,34.16
2023-03-17T02:02:18.775Z,34.10
2023-03-17T02:03:18.800Z,34.15
2023-03-17T02:04:18.877Z,34.14
2023-03-17T02:05:18.817Z,34.16
2023-03-17T02:06:18.820Z,34.15
2023-03-17T02:07:18.834Z,34.16
2023-03-17T02:08:18.836Z,34.17
2023-03-17T02:09:18.846Z,34.16
2023-03-17T02:10:18.863Z,34.20
2023-03-17T02:11:18.872Z,34.17
2023-03-17T02:12:19.092Z,34.20
2023-03-17T02:13:18.882Z,34.18
2023-03-17T02:14:18.896Z,34.18
2023-03-17T02:15:18.907Z,34.16
2023-03-17T02:16:18.963Z,34.19
2023-03-17T02:17:18.939Z,34.23
2023-03-17T02:18:19.599Z,34.18
2023-03-17T02:19:18.977Z,34.21
2023-03-17T02:20:19.011Z,34.21
2023-03-17T02:21:18.990Z,34.22
2023-03-17T02:22:19.082Z,34.22
2023-03-17T02:23:19.003Z,34.19
2023-03-17T02:24:19.090Z,34.23
2023-03-17T02:25:19.033Z,34.23
2023-03-17T02:26:19.089Z,34.26
2023-03-17T02:27:19.068Z,34.23
2023-03-17T02:28:19.079Z,34.28
2023-03-17T02:29:19.092Z,34.30
2023-03-17T02:30:19.093Z,34.32
2023-03-17T02:31:19.153Z,34.30
2023-03-17T02:32:19.138Z,34.26
2023-03-17T02:33:19.148Z,34.27
2023-03-17T02:34:19.162Z,34.35
2023-03-17T02:35:19.187Z,34.32
2023-03-17T02:36:19.230Z,34.28
2023-03-17T02:37:19.227Z,34.32
2023-03-17T02:38:19.228Z,34.34
2023-03-17T02:39:19.306Z,34.36
2023-03-17T02:40:19.243Z,34.38
2023-03-17T02:41:19.279Z,34.37
2023-03-17T02:42:19.256Z,34.34
2023-03-17T02:43:19.281Z,34.41
2023-03-17T02:44:19.297Z,34.33
2023-03-17T02:45:19.294Z,34.37
2023-03-17T02:46:19.340Z,34.38
2023-03-17T02:47:19.515Z,34.33
2023-03-17T02:48:19.321Z,34.37
2023-03-17T02:49:19.354Z,34.36
2023-03-17T02:50:19.343Z,34.32
2023-03-17T02:51:19.359Z,34.37
2023-03-17T02:52:20.104Z,34.41
2023-03-17T02:53:19.364Z,34.37
2023-03-17T02:54:19.367Z,34.40
2023-03-17T02:55:19.374Z,34.40
2023-03-17T02:56:19.380Z,34.43
2023-03-17T02:57:19.370Z,34.37
2023-03-17T02:58:19.381Z,34.45
2023-03-17T02:59:20.105Z,34.44
2023-03-17T03:00:19.399Z,34.37
2023-03-17T03:01:19.417Z,34.42
2023-03-17T03:02:19.438Z,34.40
2023-03-17T03:03:19.417Z,34.41
2023-03-17T03:04:19.429Z,34.37
2023-03-17T03:05:19.419Z,34.41
2023-03-17T03:06:19.436Z,34.43
2023-03-17T03:07:19.432Z,34.42
2023-03-17T03:08:19.454Z,34.40
2023-03-17T03:09:19.452Z,34.42
2023-03-17T03:10:19.454Z,34.45
2023-03-17T03:11:19.459Z,34.43
2023-03-17T03:12:19.461Z,34.43
2023-03-17T03:13:19.459Z,34.46
2023-03-17T03:14:19.478Z,34.42
2023-03-17T03:15:19.540Z,34.42
2023-03-17T03:16:19.695Z,34.38
2023-03-17T03:17:19.490Z,34.41
2023-03-17T03:18:19.490Z,34.51
2023-03-17T03:19:19.516Z,34.43
2023-03-17T03:20:19.502Z,34.50
2023-03-17T03:21:19.498Z,34.46
2023-03-17T03:22:19.486Z,34.45
2023-03-17T03:23:19.494Z,34.49
2023-03-17T03:24:19.493Z,34.47
2023-03-17T03:25:19.506Z,34.41
2023-03-17T03:26:20.125Z,34.46
2023-03-17T03:27:20.116Z,34.46
2023-03-17T03:28:19.503Z,34.51
2023-03-17T03:29:19.522Z,34.43
2023-03-17T03:30:19.613Z,34.45
2023-03-17T03:31:19.528Z,34.51
2023-03-17T03:32:19.517Z,34.47
2023-03-17T03:33:19.530Z,34.47
2023-03-17T03:34:19.530Z,34.48
2023-03-17T03:35:19.535Z,34.52
2023-03-17T03:36:19.537Z,34.51
2023-03-17T03:37:19.551Z,34.48
2023-03-17T03:38:19.553Z,34.54
2023-03-17T03:39:19.576Z,34.47
2023-03-17T03:40:19.572Z,34.52
2023-03-17T03:41:19.618Z,34.50
2023-03-17T03:42:19.570Z,34.51
2023-03-17T03:43:23.336Z,34.52
2023-03-17T03:44:19.556Z,34.47
2023-03-17T03:45:19.561Z,34.52
2023-03-17T03:46:19.535Z,34.53
2023-03-17T03:47:19.503Z,34.54
2023-03-17T03:48:19.496Z,34.58
2023-03-17T03:49:19.477Z,34.56
2023-03-17T03:50:19.458Z,34.56
2023-03-17T03:51:19.436Z,34.55
2023-03-17T03:52:19.422Z,34.49
2023-03-17T03:53:19.405Z,34.56
2023-03-17T03:54:19.395Z,34.56
2023-03-17T03:55:19.384Z,34.54
2023-03-17T03:56:19.358Z,34.51
2023-03-17T03:57:19.348Z,34.56
2023-03-17T03:58:19.339Z,34.52
2023-03-17T03:59:19.317Z,34.58
2023-03-17T04:01:19.332Z,34.56
2023-03-17T04:55:19.060Z,34.70
2023-03-17T04:59:19.211Z,34.81
2023-03-17T05:04:30.854Z,34.77
2023-03-17T05:07:19.084Z,34.79
2023-03-17T05:14:18.968Z,34.81
2023-03-17T05:15:18.960Z,34.82
2023-03-17T05:16:18.966Z,34.82
2023-03-17T05:17:18.917Z,34.88
2023-03-17T05:19:18.886Z,34.90
2023-03-17T05:20:18.862Z,34.83
2023-03-17T05:22:18.832Z,34.86
2023-03-17T05:23:18.823Z,34.92
2023-03-17T05:24:18.810Z,34.86
2023-03-17T05:25:18.790Z,34.88
2023-03-17T05:26:18.878Z,34.86
2023-03-17T05:27:18.817Z,34.86
2023-03-17T05:28:18.830Z,34.86
2023-03-17T05:30:18.813Z,34.87
2023-03-17T05:31:18.794Z,34.86
2023-03-17T05:32:18.761Z,34.83
2023-03-17T05:33:18.735Z,34.84
2023-03-17T05:35:18.712Z,34.90
2023-03-17T05:36:18.703Z,35.00
2023-03-17T05:37:18.672Z,34.93
2023-03-17T05:38:18.648Z,34.89
2023-03-17T05:39:19.143Z,34.92
2023-03-17T05:40:18.625Z,34.93
2023-03-17T05:41:18.612Z,34.91
2023-03-17T05:42:18.598Z,34.95
2023-03-17T05:52:18.430Z,34.98
2023-03-17T05:53:18.419Z,34.88
2023-03-17T05:54:18.435Z,34.92
2023-03-17T05:55:18.434Z,34.93
2023-03-17T05:56:18.463Z,34.98
2023-03-17T05:57:18.486Z,34.98
2023-03-17T05:58:18.498Z,34.97
2023-03-17T05:59:18.561Z,34.98
2023-03-17T06:00:18.545Z,34.95
2023-03-17T06:01:18.548Z,34.92
2023-03-17T06:02:18.634Z,34.96
2023-03-17T06:03:18.672Z,34.94
2023-03-17T06:04:18.608Z,34.94
2023-03-17T06:05:18.690Z,34.98
2023-03-17T06:06:18.636Z,34.98
2023-03-17T06:07:18.642Z,34.92
2023-03-17T06:08:18.654Z,34.93
2023-03-17T06:09:18.692Z,34.90
2023-03-17T06:10:18.712Z,35.03
2023-03-17T06:11:18.704Z,35.01
2023-03-17T06:12:18.726Z,34.99
2023-03-17T06:13:18.728Z,34.92
2023-03-17T06:14:18.795Z,34.95
2023-03-17T06:15:18.755Z,34.99
2023-03-17T06:16:18.884Z,34.95
2023-03-17T06:17:18.787Z,35.02
2023-03-17T06:18:18.768Z,34.98
2023-03-17T06:19:18.812Z,35.01
2023-03-17T06:20:18.808Z,34.64
2023-03-17T06:21:18.913Z,33.25
2023-03-17T06:22:18.881Z,33.51
2023-03-17T06:23:18.940Z,33.64
2023-03-17T06:24:18.981Z,32.26
2023-03-17T06:25:18.955Z,33.44
2023-03-17T06:26:18.975Z,33.44
2023-03-17T06:27:18.985Z,31.69
2023-03-17T06:28:19.590Z,32.52
2023-03-17T06:29:19.050Z,32.65
2023-03-17T06:30:19.082Z,31.73
2023-03-17T06:31:19.200Z,32.53
2023-03-17T06:32:20.882Z,32.58
2023-03-17T06:33:19.156Z,32.42
2023-03-17T06:34:19.163Z,32.34
2023-03-17T06:35:19.291Z,32.40
2023-03-17T06:36:19.254Z,32.37
2023-03-17T06:37:19.329Z,32.36
2023-03-17T06:38:19.352Z,32.42
2023-03-17T06:39:19.425Z,32.41
2023-03-17T06:40:19.449Z,32.41
2023-03-17T06:41:19.489Z,32.49
2023-03-17T06:42:19.537Z,32.43
2023-03-17T06:43:19.564Z,32.47
2023-03-17T06:44:19.684Z,32.54
2023-03-17T06:45:19.662Z,32.49
2023-03-17T06:46:19.726Z,32.49
2023-03-17T06:47:19.718Z,32.55
2023-03-17T06:48:19.752Z,32.54
2023-03-17T06:49:19.768Z,32.62
2023-03-17T06:50:20.594Z,32.58
2023-03-17T06:51:19.811Z,32.60
2023-03-17T06:52:19.842Z,32.65
2023-03-17T06:53:19.844Z,32.68
2023-03-17T06:54:19.887Z,32.69
2023-03-17T06:55:19.890Z,32.75
2023-03-17T06:56:29.565Z,32.65
2023-03-17T06:58:19.890Z,32.78
2023-03-17T06:59:19.892Z,32.76
2023-03-17T07:00:19.873Z,32.83
2023-03-17T07:01:19.904Z,32.80
2023-03-17T07:02:19.863Z,32.83
2023-03-17T07:03:19.840Z,32.85
2023-03-17T07:04:19.860Z,32.82
2023-03-17T07:05:19.826Z,32.86
2023-03-17T07:06:19.832Z,32.86
2023-03-17T07:07:19.844Z,32.86
2023-03-17T07:08:19.822Z,32.93
2023-03-17T07:09:19.790Z,32.93
2023-03-17T07:10:21.517Z,32.95
2023-03-17T07:11:21.597Z,32.96
2023-03-17T07:12:19.766Z,32.91
2023-03-17T07:13:19.758Z,32.93
2023-03-17T07:14:19.778Z,33.00
2023-03-17T07:15:19.783Z,33.01
2023-03-17T07:16:19.809Z,33.00
2023-03-17T07:17:19.803Z,33.01
2023-03-17T07:18:19.786Z,33.03
2023-03-17T07:19:19.811Z,33.05
2023-03-17T07:20:19.811Z,33.12
2023-03-17T07:21:19.862Z,33.15
2023-03-17T07:22:20.183Z,33.12
2023-03-17T07:23:19.866Z,33.16
2023-03-17T07:24:19.891Z,33.19
2023-03-17T07:25:20.463Z,33.39
2023-03-17T07:26:20.635Z,33.71
2023-03-17T07:27:22.763Z,34.13
2023-03-17T07:28:19.901Z,34.47
2023-03-17T07:29:19.880Z,34.73
2023-03-17T07:30:19.862Z,35.24
2023-03-17T07:31:19.965Z,35.50
2023-03-17T07:32:19.884Z,35.67
2023-03-17T07:33:19.833Z,36.00
2023-03-17T07:34:19.867Z,36.11
2023-03-17T07:35:19.862Z,36.39
2023-03-17T07:36:19.797Z,36.48
2023-03-17T07:37:19.798Z,36.74
2023-03-17T07:38:19.773Z,36.86
2023-03-17T07:39:19.727Z,37.09
2023-03-17T07:41:19.693Z,37.46
2023-03-17T07:42:19.726Z,37.50
2023-03-17T07:43:19.762Z,37.70
2023-03-17T07:44:19.650Z,37.97
2023-03-17T07:45:19.611Z,38.15
2023-03-17T07:46:19.672Z,38.40
2023-03-17T07:47:19.572Z,38.41
2023-03-17T07:48:19.546Z,38.52
2023-03-17T07:49:33.991Z,38.69
2023-03-17T07:50:20.537Z,38.82
2023-03-17T07:51:19.471Z,39.05
2023-03-17T07:52:19.432Z,39.20
2023-03-17T07:53:19.421Z,39.22
2023-03-17T07:54:20.193Z,39.66
2023-03-17T07:55:19.381Z,39.78
2023-03-17T07:56:19.318Z,39.80
2023-03-17T07:57:19.347Z,40.09
2023-03-17T07:58:19.278Z,40.21
2023-03-17T07:59:19.265Z,40.13
2023-03-17T08:00:19.288Z,40.44
2023-03-17T08:01:19.300Z,40.42
2023-03-17T08:02:19.443Z,40.59
2023-03-17T08:03:19.590Z,40.59
2023-03-17T08:04:19.409Z,40.73
2023-03-17T08:05:20.214Z,41.05
2023-03-17T08:06:19.461Z,41.10
2023-03-17T08:07:21.114Z,41.26
2023-03-17T08:08:19.530Z,41.34
2023-03-17T08:09:19.537Z,41.34
2023-03-17T08:10:21.219Z,41.65
2023-03-17T08:11:19.648Z,41.60
2023-03-17T08:12:19.653Z,41.71
2023-03-17T08:13:19.722Z,41.92
2023-03-17T08:14:20.201Z,42.15
2023-03-17T08:15:19.706Z,42.27
2023-03-17T08:16:19.772Z,42.45
2023-03-17T08:17:19.788Z,42.41
2023-03-17T08:18:19.813Z,42.53
2023-03-17T08:19:19.852Z,42.73
2023-03-17T08:20:19.829Z,42.68
2023-03-17T08:21:19.919Z,42.83
2023-03-17T08:22:20.691Z,42.84
2023-03-17T08:23:19.891Z,42.99
2023-03-17T08:24:21.612Z,43.22
2023-03-17T08:25:20.692Z,43.22
2023-03-17T08:26:20.031Z,43.18
2023-03-17T08:27:20.001Z,43.20
2023-03-17T08:28:20.048Z,43.32
2023-03-17T08:29:20.063Z,43.37
2023-03-17T08:30:20.088Z,43.64
2023-03-17T08:31:20.225Z,43.66
2023-03-17T08:32:20.156Z,43.79
2023-03-17T08:33:20.304Z,44.02
2023-03-17T08:34:21.188Z,44.18
2023-03-17T08:35:20.280Z,44.21
2023-03-17T08:36:20.279Z,44.20
2023-03-17T08:37:20.303Z,44.43
2023-03-17T08:38:20.326Z,44.40
2023-03-17T08:39:20.360Z,44.43
2023-03-17T08:40:20.397Z,44.48
2023-03-17T08:41:20.427Z,44.69
2023-03-17T08:42:20.429Z,44.68
2023-03-17T08:43:20.455Z,44.78
2023-03-17T08:44:20.474Z,44.83
2023-03-17T08:45:21.206Z,44.86
2023-03-17T08:46:20.598Z,44.88
2023-03-17T08:47:20.626Z,45.05
2023-03-17T08:48:20.622Z,45.11
2023-03-17T08:49:20.666Z,45.30
2023-03-17T08:50:20.642Z,45.26
2023-03-17T08:51:24.141Z,45.36
2023-03-17T08:52:20.640Z,45.37
2023-03-17T08:53:20.636Z,45.56
2023-03-17T08:54:20.578Z,45.46
2023-03-17T08:55:20.560Z,45.65
2023-03-17T08:56:20.629Z,45.61
2023-03-17T08:57:20.497Z,45.70
2023-03-17T08:58:21.471Z,45.69
2023-03-17T08:59:20.442Z,45.88
2023-03-17T09:00:20.493Z,46.05
2023-03-17T09:01:20.433Z,46.04
2023-03-17T09:02:20.444Z,46.08
2023-03-17T09:03:20.343Z,46.18
2023-03-17T09:04:20.313Z,46.11
2023-03-17T09:05:20.322Z,46.32
2023-03-17T09:06:20.261Z,46.53
2023-03-17T09:07:20.234Z,46.46
2023-03-17T09:08:20.224Z,46.52
2023-03-17T09:09:20.205Z,46.54
2023-03-17T09:10:20.391Z,46.60
2023-03-17T09:11:20.281Z,46.54
2023-03-17T09:12:20.301Z,46.57
2023-03-17T09:14:20.389Z,45.83
2023-03-17T09:15:20.320Z,46.19
2023-03-17T09:16:20.296Z,46.07
2023-03-17T09:17:21.207Z,46.14
2023-03-17T09:18:22.114Z,46.09
2023-03-17T09:19:20.180Z,46.00
2023-03-17T09:20:20.161Z,45.49
2023-03-17T09:21:20.125Z,44.80
2023-03-17T09:22:20.223Z,44.95
2023-03-17T09:23:20.134Z,45.17
2023-03-17T09:24:20.066Z,45.04
2023-03-17T09:25:20.032Z,44.79
2023-03-17T09:26:20.060Z,44.64
2023-03-17T09:27:20.030Z,44.52
2023-03-17T09:28:20.069Z,44.91
2023-03-17T09:29:20.082Z,45.16
2023-03-17T09:30:20.127Z,45.18
2023-03-17T09:31:20.783Z,45.39
2023-03-17T09:32:20.143Z,45.55
2023-03-17T09:33:20.638Z,45.78
2023-03-17T09:34:20.217Z,45.96
2023-03-17T09:35:20.179Z,46.00
2023-03-17T09:36:20.216Z,46.43
2023-03-17T09:37:20.189Z,46.36
2023-03-17T09:38:20.180Z,46.68
2023-03-17T09:39:20.192Z,46.99
2023-03-17T09:40:20.204Z,47.04
2023-03-17T09:41:20.214Z,47.19
2023-03-17T09:42:21.214Z,47.38
2023-03-17T09:43:20.230Z,47.50
2023-03-17T09:44:20.749Z,47.46
2023-03-17T09:45:20.335Z,47.75
2023-03-17T09:46:20.337Z,48.04
2023-03-17T09:47:20.275Z,48.02
2023-03-17T09:48:20.272Z,48.30
2023-03-17T09:49:21.224Z,48.34
2023-03-17T09:50:20.286Z,48.19
2023-03-17T09:51:20.396Z,48.41
2023-03-17T09:52:20.285Z,48.43
2023-03-17T09:53:20.292Z,48.76
2023-03-17T09:54:20.288Z,48.68
2023-03-17T09:55:20.287Z,48.93
2023-03-17T09:56:20.291Z,49.10
2023-03-17T09:57:20.298Z,49.22
2023-03-17T09:58:20.296Z,49.42
2023-03-17T09:59:20.282Z,49.56
2023-03-17T10:00:20.276Z,49.71
2023-03-17T10:01:20.288Z,49.85
2023-03-17T10:02:20.253Z,49.73
2023-03-17T10:03:20.723Z,49.74
2023-03-17T10:04:20.250Z,49.80
2023-03-17T10:05:20.263Z,50.06
2023-03-17T10:06:20.218Z,50.22
2023-03-17T10:07:20.204Z,50.07
2023-03-17T10:08:30.596Z,50.24
2023-03-17T10:09:21.165Z,50.45
2023-03-17T10:10:20.138Z,50.41
2023-03-17T10:11:20.099Z,50.75
2023-03-17T10:12:20.076Z,50.73
2023-03-17T10:13:20.032Z,50.95
2023-03-17T10:14:19.996Z,51.12
2023-03-17T10:15:19.975Z,51.09
2023-03-17T10:16:20.000Z,51.19
2023-03-17T10:17:20.231Z,51.43
2023-03-17T10:18:19.863Z,51.64
2023-03-17T10:19:19.903Z,50.97
2023-03-17T10:20:19.862Z,50.73
2023-03-17T10:21:19.772Z,50.84
2023-03-17T10:22:19.822Z,50.71
2023-03-17T10:23:20.230Z,50.44
2023-03-17T10:24:19.672Z,50.44
2023-03-17T10:25:19.758Z,50.60
2023-03-17T10:26:19.615Z,50.38
2023-03-17T10:27:21.341Z,50.40
2023-03-17T10:28:19.577Z,50.48
2023-03-17T10:29:20.233Z,50.52
2023-03-17T10:30:21.318Z,50.84
2023-03-17T10:31:20.279Z,51.01
2023-03-17T10:32:20.152Z,50.79
2023-03-17T10:33:19.604Z,50.84
2023-03-17T10:34:19.548Z,51.10
2023-03-17T10:35:19.556Z,51.21
2023-03-17T10:36:20.260Z,51.07
2023-03-17T10:37:19.545Z,51.23
2023-03-17T10:38:19.531Z,51.29
2023-03-17T10:39:20.198Z,51.27
2023-03-17T10:40:22.858Z,51.47
2023-03-17T10:41:20.234Z,51.51
2023-03-17T10:42:21.248Z,51.62
2023-03-17T10:43:20.158Z,51.82
2023-03-17T10:44:19.364Z,51.70
2023-03-17T10:45:19.334Z,51.87
2023-03-17T10:46:19.353Z,51.93
2023-03-17T10:47:19.292Z,51.94
2023-03-17T10:48:19.218Z,52.03
2023-03-17T10:49:19.742Z,52.13
2023-03-17T10:50:19.209Z,52.21
2023-03-17T10:51:19.105Z,52.21
2023-03-17T10:52:19.248Z,52.26
2023-03-17T10:53:19.026Z,52.39
2023-03-17T10:54:18.987Z,52.29
2023-03-17T10:55:20.777Z,52.20
2023-03-17T10:56:19.931Z,52.20
2023-03-17T10:57:18.889Z,52.24
2023-03-17T10:58:18.871Z,52.34
2023-03-17T10:59:18.877Z,52.35
2023-03-17T11:00:18.851Z,52.36
2023-03-17T11:01:18.770Z,52.36
2023-03-17T11:02:18.728Z,52.45
2023-03-17T11:03:18.696Z,52.59
2023-03-17T11:04:18.723Z,52.76
2023-03-17T11:05:18.618Z,52.66
2023-03-17T11:06:18.585Z,52.71
2023-03-17T11:07:18.569Z,52.76
2023-03-17T11:08:18.502Z,52.71
2023-03-17T11:09:18.509Z,52.78
2023-03-17T11:10:18.557Z,52.93
2023-03-17T11:11:18.512Z,52.94
2023-03-17T11:12:18.347Z,52.65
2023-03-17T11:13:18.345Z,52.53
2023-03-17T11:14:18.279Z,52.72
2023-03-17T11:15:18.278Z,52.58
2023-03-17T11:16:18.251Z,52.44
2023-03-17T11:17:18.186Z,52.42
2023-03-17T11:18:18.745Z,52.29
2023-03-17T11:19:18.099Z,52.23
2023-03-17T11:20:18.084Z,52.20
2023-03-17T11:21:18.047Z,52.16
2023-03-17T11:22:17.986Z,52.09
2023-03-17T11:41:18.261Z,51.16
2023-03-17T13:18:18.276Z,49.30
2023-03-17T13:22:18.276Z,49.04
2023-03-17T14:11:18.306Z,48.16
2023-03-17T14:39:18.374Z,47.76
2023-03-17T14:53:18.309Z,47.40
2023-03-17T15:06:18.314Z,47.02
2023-03-17T19:13:17.998Z,42.73
2023-03-17T19:14:18.008Z,42.71
2023-03-17T19:25:18.398Z,42.56
2023-03-17T19:44:17.982Z,42.31
2023-03-17T19:45:18.889Z,42.26
2023-03-17T19:47:17.992Z,42.30
2023-03-17T19:48:18.007Z,42.25
2023-03-17T19:49:18.053Z,42.27
2023-03-17T19:50:18.051Z,42.23
2023-03-17T19:51:18.069Z,42.19
2023-03-17T19:52:18.078Z,42.17
2023-03-17T19:53:18.110Z,42.22
2023-03-17T19:54:18.116Z,42.19
2023-03-17T19:55:18.132Z,42.17
2023-03-17T19:56:18.142Z,42.18
2023-03-17T19:57:18.177Z,42.17
2023-03-17T19:58:18.200Z,42.08
2023-03-17T19:59:18.218Z,42.08
2023-03-17T20:00:18.232Z,42.08
2023-03-17T20:01:18.271Z,42.12
2023-03-17T20:02:18.268Z,42.09
2023-03-17T20:03:18.294Z,42.08
2023-03-17T20:04:18.354Z,42.05
2023-03-17T20:05:18.331Z,42.05
2023-03-17T20:06:18.359Z,41.99
2023-03-17T20:07:18.380Z,42.02
2023-03-17T20:08:18.376Z,42.01
2023-03-17T20:09:18.386Z,41.99
2023-03-17T20:10:18.411Z,41.98
2023-03-17T20:11:18.433Z,41.99
2023-03-17T20:12:18.448Z,41.99
2023-03-17T20:13:19.406Z,41.96
2023-03-17T20:14:18.493Z,41.97
2023-03-17T20:15:18.508Z,41.95
2023-03-17T20:16:18.610Z,41.95
2023-03-17T20:17:18.530Z,41.93
2023-03-17T20:18:18.556Z,41.90
2023-03-17T20:19:18.588Z,41.87
2023-03-17T20:20:18.586Z,41.84
2023-03-17T20:21:19.402Z,41.80
2023-03-17T20:22:18.628Z,41.82
2023-03-17T20:23:18.635Z,41.76
2023-03-17T20:24:18.642Z,41.73
2023-03-17T20:25:18.659Z,41.75
2023-03-17T20:26:18.753Z,41.71
2023-03-17T20:27:18.699Z,41.68
2023-03-17T20:28:18.713Z,41.64
2023-03-17T20:29:18.787Z,41.65
2023-03-17T20:30:18.742Z,41.68
2023-03-17T20:31:18.841Z,41.61
2023-03-17T20:32:18.795Z,41.61
2023-03-17T20:33:18.803Z,41.60
2023-03-17T20:34:18.795Z,41.57
2023-03-17T20:35:18.813Z,41.64
2023-03-17T20:36:18.824Z,41.59
2023-03-17T20:37:18.845Z,41.60
2023-03-17T20:38:18.852Z,41.56
2023-03-17T20:39:18.865Z,41.55
2023-03-17T20:40:18.872Z,41.52
2023-03-17T20:41:18.898Z,41.56
2023-03-17T20:42:20.559Z,41.48
2023-03-17T20:43:18.931Z,41.51
2023-03-17T20:44:19.906Z,41.51
2023-03-17T21:23:19.586Z,41.06
2023-03-17T21:24:19.596Z,40.99
2023-03-17T21:25:19.625Z,41.02
2023-03-17T21:26:19.644Z,41.06
2023-03-17T21:28:19.657Z,41.00
2023-03-17T21:29:19.674Z,41.00
2023-03-17T21:30:19.773Z,40.98
2023-03-17T21:32:19.701Z,40.98
2023-03-17T21:33:19.714Z,40.96
2023-03-17T21:35:19.760Z,40.94
2023-03-17T21:36:19.761Z,40.90
2023-03-17T21:37:19.763Z,40.92
2023-03-17T21:38:19.774Z,40.90
2023-03-17T21:39:19.787Z,40.91
2023-03-17T21:40:19.816Z,40.92
2023-03-17T21:41:19.819Z,40.94
2023-03-17T21:42:19.836Z,40.90
2023-03-17T21:43:19.870Z,40.87
2023-03-17T21:44:19.882Z,40.81
2023-03-17T21:45:19.885Z,40.89
2023-03-17T21:46:19.892Z,40.84
2023-03-17T21:47:19.978Z,40.82
2023-03-17T21:48:19.921Z,40.80
2023-03-17T21:49:19.945Z,40.79
2023-03-17T21:50:19.962Z,40.81
2023-03-17T21:51:19.981Z,40.84
2023-03-17T21:52:20.056Z,40.77
2023-03-17T21:53:20.059Z,40.76
2023-03-17T21:54:20.027Z,40.78
2023-03-17T21:55:20.032Z,40.72
2023-03-17T21:56:20.052Z,40.73
2023-03-17T21:57:20.091Z,40.76
2023-03-17T21:58:20.085Z,40.78
2023-03-17T22:10:20.237Z,40.64
2023-03-17T22:11:20.227Z,40.67
2023-03-17T22:12:20.288Z,40.64
2023-03-17T22:13:20.246Z,40.59
2023-03-17T22:14:20.248Z,40.58
2023-03-17T22:15:20.262Z,40.63
2023-03-17T22:16:20.309Z,40.59
2023-03-17T22:17:20.933Z,40.58
2023-03-17T22:18:20.319Z,40.57
2023-03-17T22:19:21.385Z,40.58
2023-03-17T22:20:20.322Z,40.59
2023-03-17T22:21:20.353Z,40.64
2023-03-17T22:22:20.354Z,40.61
2023-03-17T22:23:20.354Z,40.56
2023-03-17T22:24:20.359Z,40.50
2023-03-17T22:25:23.192Z,40.57
2023-03-17T22:26:20.352Z,40.53
2023-03-17T22:27:20.320Z,40.53
2023-03-17T22:28:20.286Z,40.54
2023-03-17T22:29:20.270Z,40.54
2023-03-17T22:30:20.219Z,40.56
2023-03-17T22:31:20.267Z,40.53
2023-03-17T22:32:20.163Z,40.45
2023-03-17T22:33:20.138Z,40.44
2023-03-17T22:34:20.108Z,40.44
2023-03-17T22:35:20.072Z,40.47
2023-03-17T22:36:20.034Z,40.45
2023-03-17T22:37:20.011Z,40.45
2023-03-17T22:38:19.981Z,40.41
2023-03-17T22:39:19.941Z,40.41
2023-03-17T22:40:19.922Z,40.43
2023-03-17T22:41:19.908Z,40.46
2023-03-17T22:42:19.849Z,40.41
2023-03-17T22:43:19.820Z,40.44
2023-03-17T22:44:19.792Z,40.43
2023-03-17T22:45:19.765Z,40.38
2023-03-17T22:46:19.873Z,40.40
2023-03-17T22:47:19.707Z,40.35
2023-03-17T22:48:19.669Z,40.39
2023-03-17T22:49:19.639Z,40.36
2023-03-17T22:50:19.591Z,40.33
2023-03-17T22:51:19.628Z,40.39
2023-03-17T22:52:19.537Z,40.40
2023-03-17T22:53:19.510Z,40.37
2023-03-17T22:54:19.466Z,40.39
2023-03-17T22:55:19.431Z,40.40
2023-03-17T22:56:19.399Z,40.36
2023-03-17T22:57:19.362Z,40.38
2023-03-17T22:58:19.332Z,40.35
2023-03-17T22:59:19.298Z,40.34
2023-03-17T23:00:19.263Z,40.34
2023-03-17T23:01:19.285Z,40.32
2023-03-17T23:02:19.212Z,40.30
2023-03-17T23:03:19.157Z,40.32
2023-03-17T23:04:19.131Z,40.34
2023-03-17T23:05:19.102Z,40.27
2023-03-17T23:06:19.055Z,40.21
2023-03-17T23:07:19.032Z,40.22
2023-03-17T23:08:19.958Z,40.22
2023-03-17T23:09:18.956Z,40.25
2023-03-17T23:10:18.927Z,40.30
2023-03-17T23:11:18.896Z,40.27
2023-03-17T23:12:18.869Z,40.30
2023-03-17T23:13:18.958Z,40.30
2023-03-17T23:14:18.794Z,40.26
2023-03-17T23:15:18.828Z,40.28
2023-03-17T23:16:18.757Z,40.32
2023-03-17T23:17:18.691Z,40.25
2023-03-17T23:18:18.655Z,40.26
2023-03-17T23:19:18.639Z,40.30
2023-03-17T23:20:18.661Z,40.27
2023-03-17T23:21:18.558Z,40.27
2023-03-17T23:22:18.548Z,40.27
2023-03-17T23:23:18.500Z,40.28
2023-03-17T23:24:19.466Z,40.24
2023-03-17T23:25:18.436Z,40.23
2023-03-17T23:26:18.411Z,40.25
2023-03-17T23:27:18.438Z,40.25
2023-03-17T23:28:18.345Z,40.26
2023-03-17T23:29:18.357Z,40.23
2023-03-17T23:30:18.358Z,40.27
2023-03-17T23:31:18.454Z,40.29
2023-03-17T23:32:18.476Z,40.26
2023-03-17T23:33:18.401Z,40.24
2023-03-17T23:34:18.406Z,40.21
2023-03-17T23:35:18.407Z,40.20
2023-03-17T23:36:18.440Z,40.17
2023-03-17T23:37:18.425Z,40.20
2023-03-17T23:38:18.432Z,40.17
2023-03-17T23:39:18.436Z,40.18
2023-03-17T23:40:18.432Z,40.18
2023-03-17T23:41:18.439Z,40.14
2023-03-17T23:42:18.442Z,40.17
2023-03-17T23:43:18.450Z,40.16
2023-03-17T23:44:18.550Z,40.09
2023-03-17T23:45:18.509Z,40.07
2023-03-17T23:46:18.477Z,40.10
2023-03-17T23:47:18.460Z,40.12
2023-03-17T23:48:20.986Z,40.12
2023-03-17T23:49:18.539Z,40.18
2023-03-17T23:50:18.547Z,40.14
2023-03-17T23:51:18.558Z,40.12
2023-03-17T23:52:18.968Z,40.17
2023-03-17T23:53:18.564Z,40.10
2023-03-17T23:54:18.562Z,40.14
2023-03-17T23:55:18.571Z,40.12
2023-03-17T23:56:18.571Z,40.13
2023-03-17T23:57:18.591Z,40.12
2023-03-17T23:58:18.601Z,40.13
2023-03-17T23:59:18.591Z,40.12
